VA56 weather

Public forecast

Using degrees Fahrenheit for public forecast. Weather courtesy of forecast.io.

Closest aviation weather report (METAR) to Wells Airport

Closest report is Wakefield Municipal Airport, 8.4 nm (15.5 km) W. Retrieved 2020/08/14 00:54 UTC (58 minutes ago):

KAKQ 140054Z AUTO 00000KT 10SM CLR 24/23 A2996 RMK AO2 SLP145 T02440233

Closest aviation forecast (TAF) to Wells Airport

Forecast is more than 6 hours old.

Closest forecast is Felker Army Air Field, 13.0 nm (24.1 km) NE. Retrieved 2020/08/13 18:00 UTC (8 hours ago):

TAF KFAF 131800Z 1318/1424 09012KT 8000 -SHRA BKN025 BKN060 QNH2995INS TEMPO 1318/1323 VRB10G25KT 4800 TSRA BKN020CB OVC055 BECMG 1323/1400 08006KT 9999 NSW SCT025 BKN035 QNH2996INS BECMG 1416/1417 05010G15KT 8000 -SHRA SCT030 SCT100 QNH2992INS TEMPO 1417/1421 VRB10G25KT 4800 TSRA BKN020CB OVC030 BECMG 1423/1424 04006KT 9000 BR OVC020 QNH2990INS TX28/1322Z TN24/1409Z LAST NO AMDS AFT 1321 NEXT 1410